Terminal Aerodrome Forecast
Issued by NWS Charleston, WV

Home | Current Version | Previous Version | Text Only | Print | Product List | Glossary On
Versions: 1 2 3 4 5 6 7 8 9 10 11 12 13 14 15 16 17 18 19 20 21 22 23
648
FTUS41 KRLX 231130
TAFBKW
TAF
KBKW 231130Z 2312/2412 25008G17KT 5SM -RA BR SCT015 BKN027 OVC045
     FM231300 26013G21KT P6SM SCT110
     FM231900 27016G30KT P6SM BKN045
     FM240000 28014G26KT P6SM BKN030
     FM240700 28013G23KT P6SM OVC016=

USA.gov is the U.S. government's official web portal to all federal, state and local government web resources and services.